sensor_id;sensor_type;location;lat;lon;timestamp;pressure;altitude;pressure_sealevel;temperature;humidity
71764;BME280;59602;52.142;5.408;2022-12-31T00:01:24;100395.94;;;11.19;100.00
71764;BME280;59602;52.142;5.408;2022-12-31T00:03:53;100400.63;;;11.19;100.00
71764;BME280;59602;52.142;5.408;2022-12-31T00:06:23;100391.66;;;11.18;100.00
71764;BME280;59602;52.142;5.408;2022-12-31T00:08:51;100396.34;;;11.18;100.00
71764;BME280;59602;52.142;5.408;2022-12-31T00:11:19;100394.78;;;11.17;100.00
71764;BME280;59602;52.142;5.408;2022-12-31T00:13:46;100392.47;;;11.15;100.00
71764;BME280;59602;52.142;5.408;2022-12-31T00:16:16;100391.31;;;11.16;100.00
71764;BME280;59602;52.142;5.408;2022-12-31T00:18:45;100401.38;;;11.16;100.00
71764;BME280;59602;52.142;5.408;2022-12-31T00:21:13;100405.25;;;11.18;100.00
71764;BME280;59602;52.142;5.408;2022-12-31T00:23:39;100413.44;;;11.18;100.00
71764;BME280;59602;52.142;5.408;2022-12-31T00:26:09;100410.72;;;11.18;100.00
71764;BME280;59602;52.142;5.408;2022-12-31T00:28:37;100415.00;;;11.19;100.00
71764;BME280;59602;52.142;5.408;2022-12-31T00:31:05;100412.28;;;11.19;100.00
71764;BME280;59602;52.142;5.408;2022-12-31T00:33:32;100419.25;;;11.20;100.00
71764;BME280;59602;52.142;5.408;2022-12-31T00:38:31;100411.09;;;11.24;100.00
71764;BME280;59602;52.142;5.408;2022-12-31T00:40:57;100420.44;;;11.23;100.00
71764;BME280;59602;52.142;5.408;2022-12-31T00:43:24;100419.66;;;11.22;100.00
71764;BME280;59602;52.142;5.408;2022-12-31T00:45:50;100417.31;;;11.25;100.00
71764;BME280;59602;52.142;5.408;2022-12-31T00:48:17;100423.16;;;11.23;100.00
71764;BME280;59602;52.142;5.408;2022-12-31T00:50:44;100421.97;;;11.24;100.00
71764;BME280;59602;52.142;5.408;2022-12-31T00:53:11;100424.31;;;11.26;100.00
71764;BME280;59602;52.142;5.408;2022-12-31T00:55:37;100416.16;;;11.26;100.00
71764;BME280;59602;52.142;5.408;2022-12-31T00:58:04;100430.91;;;11.25;100.00
71764;BME280;59602;52.142;5.408;2022-12-31T01:00:30;100415.00;;;11.23;100.00
71764;BME280;59602;52.142;5.408;2022-12-31T01:02:57;100420.03;;;11.25;100.00
71764;BME280;59602;52.142;5.408;2022-12-31T01:05:23;100417.34;;;11.21;100.00
71764;BME280;59602;52.142;5.408;2022-12-31T01:07:50;100420.06;;;11.21;100.00
71764;BME280;59602;52.142;5.408;2022-12-31T01:10:17;100420.06;;;11.21;100.00
71764;BME280;59602;52.142;5.408;2022-12-31T01:13:03;100408.78;;;11.19;100.00
71764;BME280;59602;52.142;5.408;2022-12-31T01:15:35;100419.28;;;11.17;100.00
71764;BME280;59602;52.142;5.408;2022-12-31T01:18:03;100420.44;;;11.16;100.00
71764;BME280;59602;52.142;5.408;2022-12-31T01:20:35;100417.34;;;11.14;100.00
71764;BME280;59602;52.142;5.408;2022-12-31T01:23:01;100420.06;;;11.14;100.00
71764;BME280;59602;52.142;5.408;2022-12-31T01:25:28;100418.13;;;11.14;100.00
71764;BME280;59602;52.142;5.408;2022-12-31T01:27:55;100419.66;;;11.12;100.00
71764;BME280;59602;52.142;5.408;2022-12-31T01:30:21;100416.94;;;11.12;100.00
71764;BME280;59602;52.142;5.408;2022-12-31T01:32:48;100415.78;;;11.13;100.00
71764;BME280;59602;52.142;5.408;2022-12-31T01:35:14;100418.91;;;11.11;100.00
71764;BME280;59602;52.142;5.408;2022-12-31T01:37:41;100423.97;;;11.09;100.00
71764;BME280;59602;52.142;5.408;2022-12-31T01:40:07;100422.03;;;11.10;100.00
71764;BME280;59602;52.142;5.408;2022-12-31T01:42:34;100427.09;;;11.08;100.00
71764;BME280;59602;52.142;5.408;2022-12-31T01:45:01;100418.13;;;11.07;100.00
71764;BME280;59602;52.142;5.408;2022-12-31T01:47:35;100422.03;;;11.06;100.00
71764;BME280;59602;52.142;5.408;2022-12-31T01:50:08;100425.94;;;11.05;100.00
71764;BME280;59602;52.142;5.408;2022-12-31T01:52:40;100423.59;;;11.04;100.00
71764;BME280;59602;52.142;5.408;2022-12-31T01:55:20;100423.97;;;11.06;100.00
71764;BME280;59602;52.142;5.408;2022-12-31T01:57:51;100430.19;;;11.02;100.00
71764;BME280;59602;52.142;5.408;2022-12-31T02:00:20;100430.56;;;11.05;100.00
71764;BME280;59602;52.142;5.408;2022-12-31T02:02:47;100432.13;;;11.02;100.00
71764;BME280;59602;52.142;5.408;2022-12-31T02:05:21;100448.47;;;11.02;100.00
71764;BME280;59602;52.142;5.408;2022-12-31T02:07:50;100448.06;;;11.00;100.00
71764;BME280;59602;52.142;5.408;2022-12-31T02:10:19;100440.31;;;10.98;100.00
71764;BME280;59602;52.142;5.408;2022-12-31T02:12:46;100429.84;;;10.97;100.00
71764;BME280;59602;52.142;5.408;2022-12-31T02:15:13;100412.75;;;10.96;100.00
71764;BME280;59602;52.142;5.408;2022-12-31T02:17:49;100411.16;;;10.95;100.00
71764;BME280;59602;52.142;5.408;2022-12-31T02:28:53;100404.97;;;10.95;100.00
71764;BME280;59602;52.142;5.408;2022-12-31T02:31:24;100399.13;;;10.93;100.00
71764;BME280;59602;52.142;5.408;2022-12-31T02:33:59;100389.44;;;10.92;100.00
71764;BME280;59602;52.142;5.408;2022-12-31T02:36:32;100386.34;;;10.90;100.00
71764;BME280;59602;52.142;5.408;2022-12-31T02:39:02;100377.38;;;10.89;100.00
71764;BME280;59602;52.142;5.408;2022-12-31T02:41:29;100392.91;;;10.89;100.00
71764;BME280;59602;52.142;5.408;2022-12-31T02:44:31;100384.75;;;10.89;100.00
71764;BME280;59602;52.142;5.408;2022-12-31T03:00:04;100427.53;;;10.81;100.00
71764;BME280;59602;52.142;5.408;2022-12-31T03:02:51;100439.16;;;10.78;100.00
71764;BME280;59602;52.142;5.408;2022-12-31T03:05:23;100446.56;;;10.77;100.00
71764;BME280;59602;52.142;5.408;2022-12-31T03:07:50;100460.16;;;10.77;100.00
71764;BME280;59602;52.142;5.408;2022-12-31T03:10:18;100455.50;;;10.78;100.00
71764;BME280;59602;52.142;5.408;2022-12-31T03:12:45;100459.00;;;10.78;100.00
71764;BME280;59602;52.142;5.408;2022-12-31T03:15:14;100450.06;;;10.78;100.00
71764;BME280;59602;52.142;5.408;2022-12-31T03:17:50;100451.22;;;10.77;100.00
71764;BME280;59602;52.142;5.408;2022-12-31T03:20:17;100443.06;;;10.77;100.00
71764;BME280;59602;52.142;5.408;2022-12-31T03:23:06;100456.66;;;10.77;100.00
71764;BME280;59602;52.142;5.408;2022-12-31T03:25:33;100448.13;;;10.75;100.00
71764;BME280;59602;52.142;5.408;2022-12-31T03:28:03;100442.28;;;10.73;100.00
71764;BME280;59602;52.142;5.408;2022-12-31T03:30:31;100461.31;;;10.73;100.00
71764;BME280;59602;52.142;5.408;2022-12-31T03:32:58;100456.28;;;10.71;100.00
71764;BME280;59602;52.142;5.408;2022-12-31T03:35:27;100450.06;;;10.71;100.00
71764;BME280;59602;52.142;5.408;2022-12-31T03:37:54;100453.16;;;10.69;100.00
71764;BME280;59602;52.142;5.408;2022-12-31T03:40:23;100464.84;;;10.70;100.00
71764;BME280;59602;52.142;5.408;2022-12-31T03:42:51;100458.25;;;10.67;100.00
71764;BME280;59602;52.142;5.408;2022-12-31T03:45:18;100457.84;;;10.65;100.00
71764;BME280;59602;52.142;5.408;2022-12-31T03:47:45;100446.97;;;10.65;100.00
71764;BME280;59602;52.142;5.408;2022-12-31T03:50:14;100431.44;;;10.66;100.00
71764;BME280;59602;52.142;5.408;2022-12-31T03:52:41;100435.28;;;10.65;100.00
71764;BME280;59602;52.142;5.408;2022-12-31T03:55:09;100434.53;;;10.64;100.00
71764;BME280;59602;52.142;5.408;2022-12-31T03:57:36;100442.69;;;10.64;100.00
71764;BME280;59602;52.142;5.408;2022-12-31T04:00:06;100440.34;;;10.63;100.00
71764;BME280;59602;52.142;5.408;2022-12-31T04:02:32;100440.34;;;10.63;100.00
71764;BME280;59602;52.142;5.408;2022-12-31T04:04:59;100438.81;;;10.62;100.00
71764;BME280;59602;52.142;5.408;2022-12-31T04:07:26;100436.47;;;10.60;100.00
71764;BME280;59602;52.142;5.408;2022-12-31T04:09:52;100436.47;;;10.60;100.00
71764;BME280;59602;52.142;5.408;2022-12-31T04:12:20;100435.69;;;10.59;100.00
71764;BME280;59602;52.142;5.408;2022-12-31T04:14:47;100424.06;;;10.59;100.00
71764;BME280;59602;52.142;5.408;2022-12-31T04:17:13;100414.75;;;10.56;100.00
71764;BME280;59602;52.142;5.408;2022-12-31T04:19:40;100417.03;;;10.58;100.00
71764;BME280;59602;52.142;5.408;2022-12-31T04:22:07;100416.66;;;10.56;100.00
71764;BME280;59602;52.142;5.408;2022-12-31T04:24:35;100413.16;;;10.55;100.00
71764;BME280;59602;52.142;5.408;2022-12-31T04:27:02;100399.56;;;10.55;100.00
71764;BME280;59602;52.142;5.408;2022-12-31T04:29:34;100402.72;;;10.54;100.00
71764;BME280;59602;52.142;5.408;2022-12-31T04:32:02;100401.91;;;10.53;100.00
71764;BME280;59602;52.142;5.408;2022-12-31T04:34:29;100409.66;;;10.51;100.00
71764;BME280;59602;52.142;5.408;2022-12-31T04:36:56;100411.63;;;10.51;100.00
71764;BME280;59602;52.142;5.408;2022-12-31T04:39:23;100420.16;;;10.53;100.00
71764;BME280;59602;52.142;5.408;2022-12-31T04:41:49;100419.00;;;10.50;100.00
71764;BME280;59602;52.142;5.408;2022-12-31T04:44:16;100420.94;;;10.50;100.00
71764;BME280;59602;52.142;5.408;2022-12-31T04:46:43;100415.53;;;10.50;100.00
71764;BME280;59602;52.142;5.408;2022-12-31T04:49:10;100412.41;;;10.48;100.00
71764;BME280;59602;52.142;5.408;2022-12-31T04:51:36;100425.22;;;10.47;100.00
71764;BME280;59602;52.142;5.408;2022-12-31T04:54:03;100419.00;;;10.47;100.00
71764;BME280;59602;52.142;5.408;2022-12-31T04:56:30;100419.38;;;10.49;100.00
71764;BME280;59602;52.142;5.408;2022-12-31T04:58:57;100419.00;;;10.47;100.00
71764;BME280;59602;52.142;5.408;2022-12-31T05:01:24;100427.16;;;10.47;100.00
71764;BME280;59602;52.142;5.408;2022-12-31T05:03:51;100413.56;;;10.47;100.00
71764;BME280;59602;52.142;5.408;2022-12-31T05:06:20;100415.50;;;10.46;100.00
71764;BME280;59602;52.142;5.408;2022-12-31T05:08:48;100426.00;;;10.44;100.00
71764;BME280;59602;52.142;5.408;2022-12-31T05:11:15;100441.16;;;10.45;100.00
71764;BME280;59602;52.142;5.408;2022-12-31T05:13:43;100428.72;;;10.44;100.00
71764;BME280;59602;52.142;5.408;2022-12-31T05:16:09;100422.88;;;10.46;100.00
71764;BME280;59602;52.142;5.408;2022-12-31T05:18:36;100438.44;;;10.45;100.00
71764;BME280;59602;52.142;5.408;2022-12-31T05:21:03;100425.22;;;10.44;100.00
71764;BME280;59602;52.142;5.408;2022-12-31T05:23:30;100416.69;;;10.45;100.00
71764;BME280;59602;52.142;5.408;2022-12-31T05:25:56;100426.38;;;10.46;100.00
71764;BME280;59602;52.142;5.408;2022-12-31T05:28:25;100434.53;;;10.46;100.00
71764;BME280;59602;52.142;5.408;2022-12-31T05:30:51;100433.00;;;10.45;100.00
71764;BME280;59602;52.142;5.408;2022-12-31T05:33:18;100430.28;;;10.45;100.00
71764;BME280;59602;52.142;5.408;2022-12-31T05:35:45;100431.44;;;10.48;100.00
71764;BME280;59602;52.142;5.408;2022-12-31T05:38:12;100439.97;;;10.50;100.00
71764;BME280;59602;52.142;5.408;2022-12-31T05:40:38;100445.81;;;10.52;100.00
71764;BME280;59602;52.142;5.408;2022-12-31T05:43:05;100441.91;;;10.53;100.00
71764;BME280;59602;52.142;5.408;2022-12-31T05:45:31;100440.75;;;10.54;100.00
71764;BME280;59602;52.142;5.408;2022-12-31T05:47:59;100441.53;;;10.54;100.00
71764;BME280;59602;52.142;5.408;2022-12-31T05:50:26;100445.03;;;10.58;100.00
71764;BME280;59602;52.142;5.408;2022-12-31T05:52:53;100440.38;;;10.59;100.00
71764;BME280;59602;52.142;5.408;2022-12-31T05:55:20;100429.47;;;10.63;100.00
71764;BME280;59602;52.142;5.408;2022-12-31T05:57:46;100438.00;;;10.65;100.00
71764;BME280;59602;52.142;5.408;2022-12-31T06:00:13;100434.53;;;10.68;100.00
71764;BME280;59602;52.142;5.408;2022-12-31T06:02:40;100431.81;;;10.68;100.00
71764;BME280;59602;52.142;5.408;2022-12-31T06:05:07;100432.22;;;10.70;100.00
71764;BME280;59602;52.142;5.408;2022-12-31T06:07:34;100436.84;;;10.73;100.00
71764;BME280;59602;52.142;5.408;2022-12-31T06:10:00;100424.81;;;10.74;100.00
71764;BME280;59602;52.142;5.408;2022-12-31T06:12:27;100435.28;;;10.75;100.00
71764;BME280;59602;52.142;5.408;2022-12-31T06:14:53;100437.63;;;10.77;100.00
71764;BME280;59602;52.142;5.408;2022-12-31T06:17:20;100434.91;;;10.77;100.00
71764;BME280;59602;52.142;5.408;2022-12-31T06:19:47;100448.91;;;10.79;100.00
71764;BME280;59602;52.142;5.408;2022-12-31T06:22:15;100445.00;;;10.80;100.00
71764;BME280;59602;52.142;5.408;2022-12-31T06:24:42;100445.75;;;10.80;100.00
71764;BME280;59602;52.142;5.408;2022-12-31T06:27:08;100439.56;;;10.80;100.00
71764;BME280;59602;52.142;5.408;2022-12-31T06:29:35;100448.09;;;10.82;100.00
71764;BME280;59602;52.142;5.408;2022-12-31T06:32:01;100440.34;;;10.84;100.00
71764;BME280;59602;52.142;5.408;2022-12-31T06:34:28;100449.66;;;10.87;100.00
71764;BME280;59602;52.142;5.408;2022-12-31T06:36:54;100455.47;;;10.89;100.00
71764;BME280;59602;52.142;5.408;2022-12-31T06:39:21;100462.50;;;10.90;100.00
71764;BME280;59602;52.142;5.408;2022-12-31T06:41:48;100467.13;;;10.93;100.00
71764;BME280;59602;52.142;5.408;2022-12-31T06:44:14;100468.69;;;10.94;100.00
71764;BME280;59602;52.142;5.408;2022-12-31T06:46:41;100472.19;;;10.94;100.00
71764;BME280;59602;52.142;5.408;2022-12-31T06:49:07;100469.88;;;10.96;100.00
71764;BME280;59602;52.142;5.408;2022-12-31T06:51:34;100469.88;;;10.96;100.00
71764;BME280;59602;52.142;5.408;2022-12-31T06:54:02;100472.19;;;11.01;100.00
71764;BME280;59602;52.142;5.408;2022-12-31T06:56:28;100464.03;;;11.05;100.00
71764;BME280;59602;52.142;5.408;2022-12-31T06:59:01;100471.78;;;11.10;100.00
71764;BME280;59602;52.142;5.408;2022-12-31T07:01:39;100454.28;;;11.15;100.00
71764;BME280;59602;52.142;5.408;2022-12-31T07:07:06;100457.75;;;11.22;100.00
71764;BME280;59602;52.142;5.408;2022-12-31T07:09:44;100448.81;;;11.26;100.00
71764;BME280;59602;52.142;5.408;2022-12-31T07:14:58;100451.88;;;11.35;100.00
71764;BME280;59602;52.142;5.408;2022-12-31T07:41:11;100468.38;;;11.94;100.00
71764;BME280;59602;52.142;5.408;2022-12-31T07:47:03;100473.41;;;11.99;100.00
71764;BME280;59602;52.142;5.408;2022-12-31T07:50:02;100483.91;;;12.04;100.00
71764;BME280;59602;52.142;5.408;2022-12-31T07:55:34;100480.75;;;12.10;100.00
71764;BME280;59602;52.142;5.408;2022-12-31T07:59:04;100491.63;;;12.10;100.00
71764;BME280;59602;52.142;5.408;2022-12-31T08:14:10;100494.69;;;12.19;100.00
71764;BME280;59602;52.142;5.408;2022-12-31T08:17:19;100487.31;;;12.19;100.00
71764;BME280;59602;52.142;5.408;2022-12-31T08:19:49;100501.34;;;12.18;100.00
71764;BME280;59602;52.142;5.408;2022-12-31T08:26:14;100495.09;;;12.21;100.00
71764;BME280;59602;52.142;5.408;2022-12-31T08:28:45;100497.81;;;12.21;100.00
71764;BME280;59602;52.142;5.408;2022-12-31T08:38:36;100530.94;;;12.19;100.00
71764;BME280;59602;52.142;5.408;2022-12-31T08:41:21;100542.59;;;12.20;100.00
71764;BME280;59602;52.142;5.408;2022-12-31T08:44:02;100546.09;;;12.20;100.00
71764;BME280;59602;52.142;5.408;2022-12-31T08:46:59;100557.00;;;12.20;100.00
71764;BME280;59602;52.142;5.408;2022-12-31T08:49:31;100560.13;;;12.19;100.00
71764;BME280;59602;52.142;5.408;2022-12-31T08:51:59;100570.25;;;12.18;100.00
71764;BME280;59602;52.142;5.408;2022-12-31T08:54:26;100583.88;;;12.18;100.00
71764;BME280;59602;52.142;5.408;2022-12-31T08:59:33;100593.63;;;12.19;100.00
71764;BME280;59602;52.142;5.408;2022-12-31T09:07:08;100596.75;;;12.18;100.00
71764;BME280;59602;52.142;5.408;2022-12-31T09:09:49;100607.25;;;12.16;100.00
71764;BME280;59602;52.142;5.408;2022-12-31T09:12:34;100607.25;;;12.16;100.00
71764;BME280;59602;52.142;5.408;2022-12-31T09:15:11;100609.97;;;12.16;100.00
71764;BME280;59602;52.142;5.408;2022-12-31T09:17:46;100611.56;;;12.17;100.00
71764;BME280;59602;52.142;5.408;2022-12-31T09:20:18;100621.28;;;12.18;100.00
71764;BME280;59602;52.142;5.408;2022-12-31T09:22:46;100630.22;;;12.22;100.00
71764;BME280;59602;52.142;5.408;2022-12-31T09:25:16;100620.84;;;12.27;100.00
71764;BME280;59602;52.142;5.408;2022-12-31T09:28:01;100620.84;;;12.30;100.00
71764;BME280;59602;52.142;5.408;2022-12-31T09:30:54;100621.19;;;12.32;100.00
71764;BME280;59602;52.142;5.408;2022-12-31T09:34:06;100625.50;;;12.33;100.00
71764;BME280;59602;52.142;5.408;2022-12-31T09:36:45;100616.94;;;12.35;100.00
71764;BME280;59602;52.142;5.408;2022-12-31T09:39:24;100626.25;;;12.37;100.00
71764;BME280;59602;52.142;5.408;2022-12-31T09:42:07;100609.91;;;12.37;100.00
71764;BME280;59602;52.142;5.408;2022-12-31T09:47:41;100629.72;;;12.45;100.00
71764;BME280;59602;52.142;5.408;2022-12-31T09:55:51;100628.88;;;12.55;100.00
71764;BME280;59602;52.142;5.408;2022-12-31T10:00:57;100636.66;;;12.57;100.00
71764;BME280;59602;52.142;5.408;2022-12-31T10:03:42;100639.38;;;12.57;100.00
71764;BME280;59602;52.142;5.408;2022-12-31T10:06:23;100631.59;;;12.59;100.00
71764;BME280;59602;52.142;5.408;2022-12-31T10:09:17;100633.91;;;12.60;100.00
71764;BME280;59602;52.142;5.408;2022-12-31T10:12:13;100639.75;;;12.62;100.00
71764;BME280;59602;52.142;5.408;2022-12-31T10:15:11;100621.03;;;12.64;100.00
71764;BME280;59602;52.142;5.408;2022-12-31T10:20:29;100631.09;;;12.75;100.00
71764;BME280;59602;52.142;5.408;2022-12-31T15:11:35;100725.91;;;13.30;100.00
71764;BME280;59602;52.142;5.408;2022-12-31T15:15:02;100729.06;;;13.28;99.74
71764;BME280;59602;52.142;5.408;2022-12-31T15:27:37;100708.03;;;13.22;99.16
71764;BME280;59602;52.142;5.408;2022-12-31T15:30:45;100702.19;;;13.20;99.36
71764;BME280;59602;52.142;5.408;2022-12-31T15:36:55;100688.91;;;13.22;98.65
71764;BME280;59602;52.142;5.408;2022-12-31T15:42:40;100683.41;;;13.25;98.06
71764;BME280;59602;52.142;5.408;2022-12-31T15:45:47;100684.16;;;13.26;97.80
71764;BME280;59602;52.142;5.408;2022-12-31T15:48:47;100687.31;;;13.24;97.36
71764;BME280;59602;52.142;5.408;2022-12-31T15:52:10;100681.84;;;13.28;96.85
71764;BME280;59602;52.142;5.408;2022-12-31T15:55:44;100684.97;;;13.26;96.67
71764;BME280;59602;52.142;5.408;2022-12-31T15:59:13;100684.16;;;13.26;96.36
71764;BME280;59602;52.142;5.408;2022-12-31T16:02:02;100694.31;;;13.25;96.02
71764;BME280;59602;52.142;5.408;2022-12-31T16:04:52;100701.34;;;13.30;95.58
71764;BME280;59602;52.142;5.408;2022-12-31T16:07:30;100695.50;;;13.32;94.91
71764;BME280;59602;52.142;5.408;2022-12-31T16:13:19;100699.75;;;13.36;94.04
71764;BME280;59602;52.142;5.408;2022-12-31T16:16:00;100700.13;;;13.38;93.48
71764;BME280;59602;52.142;5.408;2022-12-31T16:18:43;100693.88;;;13.38;93.37
71764;BME280;59602;52.142;5.408;2022-12-31T16:21:44;100698.56;;;13.37;93.44
71764;BME280;59602;52.142;5.408;2022-12-31T16:27:54;100675.09;;;13.43;92.04
71764;BME280;59602;52.142;5.408;2022-12-31T16:30:44;100683.66;;;13.45;92.01
71764;BME280;59602;52.142;5.408;2022-12-31T16:34:10;100677.06;;;13.43;92.00
71764;BME280;59602;52.142;5.408;2022-12-31T16:36:40;100670.47;;;13.40;91.64
71764;BME280;59602;52.142;5.408;2022-12-31T16:42:54;100673.13;;;13.47;90.99
71764;BME280;59602;52.142;5.408;2022-12-31T16:45:41;100669.63;;;13.47;90.54
71764;BME280;59602;52.142;5.408;2022-12-31T16:51:38;100673.50;;;13.46;90.63
71764;BME280;59602;52.142;5.408;2022-12-31T16:54:35;100680.91;;;13.49;89.68
71764;BME280;59602;52.142;5.408;2022-12-31T16:57:37;100684.03;;;13.47;89.92
71764;BME280;59602;52.142;5.408;2022-12-31T17:00:13;100675.84;;;13.47;88.86
71764;BME280;59602;52.142;5.408;2022-12-31T17:03:28;100668.03;;;13.49;88.86
71764;BME280;59602;52.142;5.408;2022-12-31T17:10:15;100659.84;;;13.49;88.89
71764;BME280;59602;52.142;5.408;2022-12-31T17:13:20;100677.44;;;13.45;89.07
71764;BME280;59602;52.142;5.408;2022-12-31T17:19:17;100675.84;;;13.47;88.27
71764;BME280;59602;52.142;5.408;2022-12-31T17:21:55;100668.44;;;13.48;87.34
71764;BME280;59602;52.142;5.408;2022-12-31T17:24:25;100652.84;;;13.48;87.45
71764;BME280;59602;52.142;5.408;2022-12-31T17:30:33;100659.91;;;13.42;87.87
71764;BME280;59602;52.142;5.408;2022-12-31T17:36:13;100653.69;;;13.42;86.76
71764;BME280;59602;52.142;5.408;2022-12-31T17:38:41;100654.03;;;13.44;86.47
71764;BME280;59602;52.142;5.408;2022-12-31T17:41:28;100660.31;;;13.41;86.42
71764;BME280;59602;52.142;5.408;2022-12-31T17:43:56;100656.41;;;13.42;86.42
71764;BME280;59602;52.142;5.408;2022-12-31T17:46:23;100649.38;;;13.41;86.74
71764;BME280;59602;52.142;5.408;2022-12-31T17:48:56;100652.09;;;13.41;86.19
71764;BME280;59602;52.142;5.408;2022-12-31T17:51:24;100653.31;;;13.40;85.80
71764;BME280;59602;52.142;5.408;2022-12-31T17:53:50;100665.38;;;13.42;85.66
71764;BME280;59602;52.142;5.408;2022-12-31T17:56:18;100668.09;;;13.42;85.17
71764;BME280;59602;52.142;5.408;2022-12-31T17:59:36;100673.13;;;13.44;85.62
71764;BME280;59602;52.142;5.408;2022-12-31T18:02:10;100670.06;;;13.42;85.34
71764;BME280;59602;52.142;5.408;2022-12-31T18:04:38;100678.97;;;13.46;84.93
71764;BME280;59602;52.142;5.408;2022-12-31T18:07:05;100670.78;;;13.46;84.62
71764;BME280;59602;52.142;5.408;2022-12-31T18:09:31;100680.53;;;13.47;84.40
71764;BME280;59602;52.142;5.408;2022-12-31T18:12:00;100678.59;;;13.47;84.29
71764;BME280;59602;52.142;5.408;2022-12-31T18:14:27;100670.00;;;13.49;83.99
71764;BME280;59602;52.142;5.408;2022-12-31T18:16:56;100668.81;;;13.50;83.71
71764;BME280;59602;52.142;5.408;2022-12-31T18:19:25;100672.72;;;13.49;83.93
71764;BME280;59602;52.142;5.408;2022-12-31T18:22:32;100678.59;;;13.47;83.98
71764;BME280;59602;52.142;5.408;2022-12-31T18:24:59;100659.06;;;13.49;83.08
71764;BME280;59602;52.142;5.408;2022-12-31T18:27:28;100665.31;;;13.49;82.83
71764;BME280;59602;52.142;5.408;2022-12-31T18:30:20;100665.69;;;13.52;82.68
71764;BME280;59602;52.142;5.408;2022-12-31T18:33:18;100662.97;;;13.48;83.53
71764;BME280;59602;52.142;5.408;2022-12-31T18:36:02;100668.44;;;13.48;82.77
71764;BME280;59602;52.142;5.408;2022-12-31T18:38:36;100673.13;;;13.47;82.81
71764;BME280;59602;52.142;5.408;2022-12-31T18:41:06;100670.75;;;13.49;82.39
71764;BME280;59602;52.142;5.408;2022-12-31T18:43:59;100677.38;;;13.52;81.86
71764;BME280;59602;52.142;5.408;2022-12-31T18:46:53;100670.38;;;13.51;81.58
71764;BME280;59602;52.142;5.408;2022-12-31T18:49:29;100679.31;;;13.55;80.79
71764;BME280;59602;52.142;5.408;2022-12-31T18:52:36;100675.00;;;13.58;80.44
71764;BME280;59602;52.142;5.408;2022-12-31T18:55:38;100682.38;;;13.61;80.31
71764;BME280;59602;52.142;5.408;2022-12-31T18:58:06;100680.03;;;13.59;80.56
71764;BME280;59602;52.142;5.408;2022-12-31T19:00:34;100677.72;;;13.58;80.37
71764;BME280;59602;52.142;5.408;2022-12-31T19:03:37;100672.63;;;13.60;80.01
71764;BME280;59602;52.142;5.408;2022-12-31T19:06:43;100691.72;;;13.63;79.08
71764;BME280;59602;52.142;5.408;2022-12-31T19:09:29;100687.81;;;13.64;78.15
71764;BME280;59602;52.142;5.408;2022-12-31T19:12:20;100694.44;;;13.67;77.68
71764;BME280;59602;52.142;5.408;2022-12-31T19:14:49;100699.06;;;13.70;77.33
71764;BME280;59602;52.142;5.408;2022-12-31T19:17:24;100696.72;;;13.68;77.62
71764;BME280;59602;52.142;5.408;2022-12-31T19:20:18;100708.47;;;13.69;77.25
71764;BME280;59602;52.142;5.408;2022-12-31T19:22:46;100696.34;;;13.70;76.47
71764;BME280;59602;52.142;5.408;2022-12-31T19:25:37;100699.84;;;13.70;76.52
71764;BME280;59602;52.142;5.408;2022-12-31T19:28:14;100708.03;;;13.70;76.94
71764;BME280;59602;52.142;5.408;2022-12-31T19:30:47;100705.34;;;13.67;76.66
71764;BME280;59602;52.142;5.408;2022-12-31T19:33:15;100693.66;;;13.66;76.75
71764;BME280;59602;52.142;5.408;2022-12-31T19:36:13;100686.22;;;13.67;75.75
71764;BME280;59602;52.142;5.408;2022-12-31T19:38:44;100701.44;;;13.68;75.97
71764;BME280;59602;52.142;5.408;2022-12-31T19:41:16;100698.31;;;13.66;76.11
71764;BME280;59602;52.142;5.408;2022-12-31T19:43:52;100698.38;;;13.62;75.16
71764;BME280;59602;52.142;5.408;2022-12-31T19:46:35;100685.84;;;13.65;74.66
71764;BME280;59602;52.142;5.408;2022-12-31T19:49:01;100691.28;;;13.68;74.45
71764;BME280;59602;52.142;5.408;2022-12-31T19:51:28;100702.63;;;13.67;74.90
71764;BME280;59602;52.142;5.408;2022-12-31T19:53:56;100703.00;;;13.69;74.63
71764;BME280;59602;52.142;5.408;2022-12-31T19:56:23;100708.88;;;13.64;74.71
71764;BME280;59602;52.142;5.408;2022-12-31T19:59:10;100719.81;;;13.64;74.45
71764;BME280;59602;52.142;5.408;2022-12-31T20:02:03;100719.38;;;13.69;74.12
71764;BME280;59602;52.142;5.408;2022-12-31T20:04:30;100713.50;;;13.70;74.29
71764;BME280;59602;52.142;5.408;2022-12-31T20:06:57;100716.59;;;13.73;73.88
71764;BME280;59602;52.142;5.408;2022-12-31T20:09:26;100718.56;;;13.72;73.93
71764;BME280;59602;52.142;5.408;2022-12-31T20:11:53;100718.19;;;13.70;73.85
71764;BME280;59602;52.142;5.408;2022-12-31T20:14:24;100723.66;;;13.70;74.04
71764;BME280;59602;52.142;5.408;2022-12-31T20:17:13;100724.47;;;13.67;74.42
71764;BME280;59602;52.142;5.408;2022-12-31T20:19:51;100715.50;;;13.66;74.07
71764;BME280;59602;52.142;5.408;2022-12-31T20:22:19;100712.72;;;13.70;73.08
71764;BME280;59602;52.142;5.408;2022-12-31T20:24:46;100733.81;;;13.73;73.02
71764;BME280;59602;52.142;5.408;2022-12-31T20:27:19;100743.53;;;13.74;73.85
71764;BME280;59602;52.142;5.408;2022-12-31T20:30:53;100736.94;;;13.72;73.88
71764;BME280;59602;52.142;5.408;2022-12-31T20:33:08;100720.16;;;13.69;73.61
71764;BME280;59602;52.142;5.408;2022-12-31T20:35:41;100729.53;;;13.68;73.94
71764;BME280;59602;52.142;5.408;2022-12-31T20:38:52;100717.03;;;13.71;73.57
71764;BME280;59602;52.142;5.408;2022-12-31T20:41:46;100720.13;;;13.73;73.10